Time;durP1;ratioP1;P1;durP2;ratioP2;P2;SDS_P1;SDS_P2;PMS_P1;PMS_P2;Temp;Humidity;BMP_temperature;BMP_pressure;BME280_temperature;BME280_humidity;BME280_pressure;Samples;Min_cycle;Max_cycle;Signal;HPM_P1;HPM_P2
2022/10/01 00:00:50;;;;;;;15.32;10.00;;;;;;;11.67;97.25;96298.31;1766664;81;21294;-83
2022/10/01 00:03:20;;;;;;;12.85;10.82;;;;;;;11.63;97.48;96292.69;1756779;80;20941;-83
2022/10/01 00:05:46;;;;;;;14.83;10.48;;;;;;;11.65;97.76;96286.79;1759347;79;21360;-83
2022/10/01 00:08:15;;;;;;;15.95;10.90;;;;;;;11.62;97.49;96290.27;1794953;80;21019;-83
2022/10/01 00:10:42;;;;;;;16.75;11.68;;;;;;;11.53;97.39;96283.59;1792293;79;20989;-83
2022/10/01 00:13:09;;;;;;;16.00;10.43;;;;;;;11.51;98.00;96272.08;1793172;79;21502;-82
2022/10/01 00:15:39;;;;;;;15.10;10.82;;;;;;;11.49;97.98;96280.58;1787196;79;21048;-83
2022/10/01 00:18:06;;;;;;;19.82;15.38;;;;;;;11.46;97.84;96289.26;1765475;79;21458;-82
2022/10/01 00:20:32;;;;;;;18.82;13.30;;;;;;;11.33;97.49;96288.16;1788800;80;20973;-83
2022/10/01 00:22:58;;;;;;;16.73;12.30;;;;;;;11.28;97.85;96288.42;1794530;80;21375;-83
2022/10/01 00:25:24;;;;;;;12.18;10.25;;;;;;;11.27;98.11;96300.62;1773453;78;20983;-83
2022/10/01 00:27:50;;;;;;;16.00;11.40;;;;;;;11.28;98.31;96300.13;1759634;81;21013;-83
2022/10/01 00:30:16;;;;;;;15.25;10.58;;;;;;;11.30;98.34;96302.05;1751694;80;20965;-83
2022/10/01 00:32:42;;;;;;;22.42;12.28;;;;;;;11.30;98.41;96298.95;1762481;81;21073;-83
2022/10/01 00:35:08;;;;;;;15.08;11.48;;;;;;;11.31;98.37;96302.35;1764296;81;21074;-83
2022/10/01 00:37:36;;;;;;;14.50;10.78;;;;;;;11.29;98.24;96297.34;1764799;80;21059;-82
2022/10/01 00:40:04;;;;;;;14.47;10.43;;;;;;;11.30;98.48;96284.64;1761668;80;21078;-83
2022/10/01 00:42:30;;;;;;;14.85;10.58;;;;;;;11.31;98.14;96285.45;1756616;81;20986;-83
2022/10/01 00:44:57;;;;;;;13.88;10.40;;;;;;;11.26;97.98;96285.21;1764706;80;21403;-83
2022/10/01 00:47:33;;;;;;;12.88;9.30;;;;;;;11.21;97.96;96285.75;1743004;81;21406;-83
2022/10/01 00:50:15;;;;;;;13.75;9.98;;;;;;;11.18;98.11;96293.94;1760433;81;21014;-82
2022/10/01 00:52:42;;;;;;;13.60;10.68;;;;;;;11.20;98.24;96297.65;1747507;80;21325;-83
2022/10/01 00:55:22;;;;;;;14.50;10.72;;;;;;;11.20;98.49;96291.14;1756316;81;20959;-82
2022/10/01 00:57:48;;;;;;;15.60;11.63;;;;;;;11.18;98.27;96292.64;1774518;81;20983;-83
2022/10/01 01:00:14;;;;;;;15.80;11.57;;;;;;;11.15;97.93;96303.91;1755261;81;20965;-83
2022/10/01 01:02:40;;;;;;;11.97;10.15;;;;;;;11.09;97.79;96306.28;1776506;81;22012;-83
2022/10/01 01:05:12;;;;;;;14.73;9.98;;;;;;;11.06;97.62;96308.42;1776148;81;20974;-83
2022/10/01 01:07:39;;;;;;;12.35;9.28;;;;;;;11.00;97.56;96307.38;1776458;81;20959;-83
2022/10/01 01:10:06;;;;;;;13.65;9.45;;;;;;;10.96;97.47;96307.95;1734719;80;20983;-83
2022/10/01 01:12:55;;;;;;;13.20;10.10;;;;;;;10.92;97.49;96306.22;1771839;81;21037;-83
2022/10/01 01:15:47;;;;;;;10.93;8.55;;;;;;;10.89;97.53;96305.27;1762564;81;22132;-83
2022/10/01 01:18:34;;;;;;;13.88;10.50;;;;;;;10.91;97.79;96316.80;1741840;81;21064;-83
2022/10/01 01:21:15;;;;;;;11.43;9.13;;;;;;;10.91;97.86;96316.80;1761970;81;21025;-83
2022/10/01 01:24:04;;;;;;;12.95;9.78;;;;;;;10.89;97.91;96315.66;1769495;81;21349;-83
2022/10/01 01:26:52;;;;;;;13.30;9.20;;;;;;;10.89;98.15;96315.66;1756663;81;21046;-83
2022/10/01 01:29:45;;;;;;;16.20;10.10;;;;;;;10.88;98.07;96310.66;1715450;81;21365;-83
2022/10/01 01:32:17;;;;;;;16.02;10.35;;;;;;;10.86;98.28;96308.73;1758561;81;21405;-83
2022/10/01 01:34:45;;;;;;;13.70;9.88;;;;;;;10.84;98.59;96306.33;1758158;81;20952;-83
2022/10/01 01:37:14;;;;;;;16.12;9.95;;;;;;;10.85;98.61;96307.93;1752462;81;20919;-83
2022/10/01 01:39:42;;;;;;;12.00;9.00;;;;;;;10.86;98.73;96308.23;1749671;81;21347;-83
2022/10/01 01:42:14;;;;;;;10.03;7.62;;;;;;;10.87;98.91;96307.25;1738225;81;21390;-82
2022/10/01 01:44:42;;;;;;;12.75;9.63;;;;;;;10.89;99.21;96299.27;1757398;81;20964;-82
2022/10/01 01:47:09;;;;;;;12.00;8.78;;;;;;;10.92;99.26;96298.42;1733951;81;21433;-83
2022/10/01 01:49:37;;;;;;;10.08;6.28;;;;;;;10.94;99.33;96304.23;1742027;82;20975;-82
2022/10/01 01:52:16;;;;;;;11.08;6.42;;;;;;;10.97;99.35;96308.25;1794894;80;20982;-83
2022/10/01 01:54:46;;;;;;;9.28;4.97;;;;;;;11.00;99.56;96306.58;1760998;81;20947;-83
2022/10/01 01:57:12;;;;;;;9.18;5.30;;;;;;;11.06;99.87;96308.42;1746539;81;21054;-83
2022/10/01 01:59:39;;;;;;;7.30;5.65;;;;;;;11.01;99.54;96306.89;1757399;80;21058;-83
2022/10/01 02:02:10;;;;;;;7.62;5.75;;;;;;;10.95;99.43;96315.44;1790822;79;20979;-83
2022/10/01 02:04:42;;;;;;;8.75;6.05;;;;;;;10.94;99.71;96313.33;1771889;79;20968;-84
2022/10/01 02:07:33;;;;;;;7.70;5.62;;;;;;;10.98;99.64;96310.67;1763628;80;20952;-84
2022/10/01 02:10:20;;;;;;;7.73;6.07;;;;;;;11.05;99.76;96314.12;1794230;79;20997;-84
2022/10/01 02:13:25;;;;;;;8.18;5.97;;;;;;;11.11;99.75;96312.09;1772718;80;21385;-83
2022/10/01 02:16:17;;;;;;;10.85;8.05;;;;;;;11.13;99.70;96315.31;1791764;79;21005;-83
2022/10/01 02:19:07;;;;;;;12.98;9.18;;;;;;;11.17;99.78;96319.63;1773605;79;21068;-83
2022/10/01 02:22:05;;;;;;;13.20;10.98;;;;;;;11.21;99.70;96315.66;1774174;80;21311;-83
2022/10/01 02:24:39;;;;;;;14.35;10.58;;;;;;;11.25;99.34;96312.22;1782609;80;20941;-83
2022/10/01 02:27:09;;;;;;;16.77;12.63;;;;;;;11.23;99.30;96306.41;1796410;79;21010;-83
2022/10/01 02:29:35;;;;;;;18.85;13.05;;;;;;;11.24;99.39;96311.41;1791299;80;21008;-83
2022/10/01 02:32:01;;;;;;;17.65;13.15;;;;;;;11.25;99.20;96316.12;1761866;80;21019;-83
2022/10/01 02:34:28;;;;;;;19.05;13.32;;;;;;;11.25;99.29;96314.81;1762239;81;21290;-83
2022/10/01 02:36:54;;;;;;;14.95;11.70;;;;;;;11.24;99.29;96308.81;1761721;81;21384;-83
2022/10/01 02:39:20;;;;;;;14.60;11.25;;;;;;;11.24;99.42;96303.61;1762186;81;20949;-83
2022/10/01 02:41:47;;;;;;;16.60;12.40;;;;;;;11.24;99.44;96310.11;1778252;78;20915;-84
2022/10/01 02:44:19;;;;;;;20.55;15.55;;;;;;;11.19;99.46;96309.84;1789025;78;20999;-83
2022/10/01 02:47:33;;;;;;;18.57;15.77;;;;;;;11.16;99.59;96318.03;1765367;80;21085;-83
2022/10/01 02:50:01;;;;;;;15.85;12.28;;;;;;;11.17;99.71;96318.83;1782045;79;21003;-83
2022/10/01 02:52:53;;;;;;;17.20;12.95;;;;;;;11.16;99.78;96324.53;1773350;79;21048;-83
2022/10/01 02:55:27;;;;;;;19.48;12.68;;;;;;;11.17;99.86;96319.63;1788601;79;21028;-82
2022/10/01 02:57:55;;;;;;;23.57;16.15;;;;;;;11.19;100.00;96328.55;1783848;80;20945;-83
2022/10/01 03:00:21;;;;;;;22.40;17.57;;;;;;;11.19;100.00;96326.75;1755535;80;20985;-83
2022/10/01 03:02:47;;;;;;;19.95;16.15;;;;;;;11.21;100.00;96329.16;1794898;78;21308;-82
2022/10/01 03:05:14;;;;;;;21.50;15.18;;;;;;;11.25;100.00;96333.83;1757090;81;20951;-83
2022/10/01 03:07:40;;;;;;;18.20;14.28;;;;;;;11.28;100.00;96324.34;1751754;80;21011;-83
2022/10/01 03:10:07;;;;;;;18.40;14.03;;;;;;;11.31;100.00;96327.06;1762726;81;20931;-82
2022/10/01 03:12:34;;;;;;;16.00;12.07;;;;;;;11.30;100.00;96317.65;1794704;78;21002;-83
2022/10/01 03:15:01;;;;;;;18.07;13.53;;;;;;;11.30;100.00;96311.95;1757887;81;21021;-83
2022/10/01 03:17:28;;;;;;;19.20;13.13;;;;;;;11.34;100.00;96306.67;1794099;78;20979;-82
2022/10/01 03:19:54;;;;;;;18.65;13.38;;;;;;;11.41;100.00;96317.16;1770712;79;20928;-82
2022/10/01 03:22:23;;;;;;;18.80;13.22;;;;;;;11.47;100.00;96322.89;1771472;81;21294;-83
2022/10/01 03:24:50;;;;;;;16.65;12.73;;;;;;;11.50;100.00;96323.81;1772605;79;21026;-83
2022/10/01 03:27:17;;;;;;;18.12;12.93;;;;;;;11.47;100.00;96323.39;1770492;79;20952;-83
2022/10/01 03:29:43;;;;;;;17.77;13.72;;;;;;;11.49;100.00;96322.70;1763540;81;20981;-83
2022/10/01 03:32:09;;;;;;;16.48;13.75;;;;;;;11.50;100.00;96327.72;1772838;81;20934;-83
2022/10/01 03:34:35;;;;;;;15.58;12.13;;;;;;;11.48;100.00;96325.80;1773003;79;20967;-82
2022/10/01 03:37:00;;;;;;;14.50;12.03;;;;;;;11.49;100.00;96318.30;1760384;79;20983;-82
2022/10/01 03:39:26;;;;;;;15.53;11.65;;;;;;;11.49;100.00;96319.60;1772275;81;20946;-82
2022/10/01 03:41:52;;;;;;;22.32;12.88;;;;;;;11.51;100.00;96320.71;1772844;79;20977;-82
2022/10/01 03:44:17;;;;;;;17.73;12.90;;;;;;;11.54;100.00;96322.44;1774475;79;21344;-83
2022/10/01 03:46:43;;;;;;;16.67;13.62;;;;;;;11.58;100.00;96317.68;1769029;81;21118;-83
2022/10/01 03:49:09;;;;;;;18.62;14.20;;;;;;;11.63;100.00;96308.30;1718167;82;21345;-83
2022/10/01 03:51:36;;;;;;;22.17;14.00;;;;;;;11.64;100.00;96311.70;1745300;81;20991;-83
2022/10/01 03:54:03;;;;;;;19.23;13.55;;;;;;;11.61;100.00;96319.90;1748152;81;20983;-83
2022/10/01 03:56:28;;;;;;;18.57;14.73;;;;;;;11.61;100.00;96313.39;1771367;81;20947;-83
2022/10/01 03:58:54;;;;;;;19.75;14.70;;;;;;;11.61;100.00;96310.79;1751211;80;20962;-82
2022/10/01 04:01:20;;;;;;;19.95;15.58;;;;;;;11.58;100.00;96306.77;1755138;81;20947;-83
2022/10/01 04:03:46;;;;;;;18.92;14.63;;;;;;;11.59;100.00;96304.97;1753483;81;21435;-83
2022/10/01 04:06:12;;;;;;;21.12;15.80;;;;;;;11.57;100.00;96305.17;1747315;81;21068;-83
2022/10/01 04:08:38;;;;;;;17.32;13.83;;;;;;;11.57;100.00;96299.96;1717159;82;21027;-82
2022/10/01 04:11:06;;;;;;;22.40;13.70;;;;;;;11.56;100.00;96303.56;1749797;81;20935;-82
2022/10/01 04:13:33;;;;;;;17.62;14.65;;;;;;;11.60;100.00;96294.88;1757624;81;21010;-83
2022/10/01 04:16:03;;;;;;;21.50;14.98;;;;;;;11.60;100.00;96293.07;1744733;81;21078;-83
2022/10/01 04:18:29;;;;;;;21.07;14.68;;;;;;;11.67;100.00;96297.01;1745489;81;21071;-83
2022/10/01 04:20:56;;;;;;;17.92;14.35;;;;;;;11.69;100.00;96295.81;1745023;81;20983;-83
2022/10/01 04:23:23;;;;;;;20.43;15.10;;;;;;;11.70;100.00;96293.52;1746099;81;21340;-83
2022/10/01 04:25:50;;;;;;;20.65;13.93;;;;;;;11.73;100.00;96289.76;1752093;81;20970;-83
2022/10/01 04:28:16;;;;;;;19.75;14.70;;;;;;;11.75;100.00;96286.46;1758631;81;21365;-83
2022/10/01 04:30:43;;;;;;;19.10;13.95;;;;;;;11.77;100.00;96283.67;1744436;81;21026;-83
2022/10/01 04:33:13;;;;;;;18.55;14.43;;;;;;;11.79;100.00;96285.11;1745369;81;20998;-83
2022/10/01 04:35:38;;;;;;;20.72;14.20;;;;;;;11.82;100.00;96286.02;1746826;81;20933;-83
2022/10/01 04:38:09;;;;;;;17.02;12.58;;;;;;;11.82;100.00;96282.61;1743824;81;21006;-83
2022/10/01 04:40:35;;;;;;;18.35;12.18;;;;;;;11.86;100.00;96279.93;1745177;81;20987;-83
2022/10/01 04:43:01;;;;;;;18.75;11.93;;;;;;;11.86;100.00;96273.42;1745159;81;20982;-83
2022/10/01 04:45:27;;;;;;;16.90;12.23;;;;;;;11.87;100.00;96274.53;1744582;81;20947;-83
2022/10/01 04:47:54;;;;;;;19.60;12.50;;;;;;;11.86;100.00;96274.22;1768234;79;21479;-83
2022/10/01 04:50:21;;;;;;;18.85;12.03;;;;;;;11.88;100.00;96270.16;1774510;79;20959;-83
2022/10/01 04:52:47;;;;;;;15.23;12.23;;;;;;;11.90;100.00;96266.86;1758521;79;20943;-84
2022/10/01 04:55:14;;;;;;;13.93;10.90;;;;;;;11.87;100.00;96264.11;1765349;79;21308;-83
2022/10/01 04:57:39;;;;;;;16.25;11.43;;;;;;;11.84;100.00;96263.20;1772777;79;21021;-83
2022/10/01 05:00:08;;;;;;;12.03;10.23;;;;;;;11.83;100.00;96268.11;1772806;79;21037;-83
2022/10/01 05:02:35;;;;;;;14.45;9.53;;;;;;;11.84;100.00;96265.00;1772959;81;21117;-83
2022/10/01 05:05:02;;;;;;;12.78;9.25;;;;;;;11.84;100.00;96265.80;1772927;81;20951;-83
2022/10/01 05:07:31;;;;;;;13.20;7.85;;;;;;;11.88;100.00;96269.66;1761405;79;21395;-83
2022/10/01 05:09:59;;;;;;;10.55;8.05;;;;;;;11.91;100.00;96267.16;1760039;79;21075;-83
2022/10/01 05:12:27;;;;;;;13.78;9.25;;;;;;;11.94;100.00;96274.58;1764615;79;21108;-83
2022/10/01 05:14:53;;;;;;;9.05;7.15;;;;;;;11.98;100.00;96273.19;1771824;81;20969;-83
2022/10/01 05:17:19;;;;;;;7.85;6.15;;;;;;;12.03;100.00;96270.30;1772817;81;21014;-84
2022/10/01 05:19:45;;;;;;;8.53;5.17;;;;;;;12.04;100.00;96272.44;1756114;81;20967;-83
2022/10/01 05:22:11;;;;;;;5.33;3.85;;;;;;;12.06;100.00;96273.55;1749160;79;20948;-83
2022/10/01 05:24:37;;;;;;;5.92;3.87;;;;;;;12.13;100.00;96268.66;1743041;80;20987;-83
2022/10/01 05:27:03;;;;;;;3.85;3.30;;;;;;;12.17;100.00;96271.67;1751593;81;21009;-83
2022/10/01 05:29:29;;;;;;;5.65;3.25;;;;;;;12.21;100.00;96276.82;1773174;79;21037;-83
2022/10/01 05:31:57;;;;;;;7.12;3.37;;;;;;;12.27;100.00;96278.64;1772604;79;21013;-83
2022/10/01 05:34:23;;;;;;;5.35;3.42;;;;;;;12.27;100.00;96272.13;1773003;79;20958;-83
2022/10/01 05:36:48;;;;;;;5.37;3.83;;;;;;;12.28;100.00;96272.42;1772934;79;20962;-83
2022/10/01 05:39:14;;;;;;;4.83;3.35;;;;;;;12.28;100.00;96268.52;1773148;79;20922;-83
2022/10/01 05:41:40;;;;;;;6.50;3.87;;;;;;;12.32;100.00;96268.42;1772863;79;20927;-83
2022/10/01 05:44:06;;;;;;;4.60;4.10;;;;;;;12.33;100.00;96262.22;1760217;81;20954;-83
2022/10/01 05:46:33;;;;;;;4.95;4.42;;;;;;;12.37;100.00;96256.14;1741689;81;21128;-84
2022/10/01 05:48:59;;;;;;;4.28;3.87;;;;;;;12.43;100.00;96257.95;1744483;81;21051;-84
2022/10/01 05:51:24;;;;;;;5.62;4.00;;;;;;;12.47;100.00;96246.13;1745892;81;21074;-83
2022/10/01 05:53:53;;;;;;;5.40;3.72;;;;;;;12.56;100.00;96256.19;1745432;81;21069;-83
2022/10/01 05:56:19;;;;;;;5.83;4.42;;;;;;;12.61;100.00;96264.22;1745448;81;21026;-83
2022/10/01 05:58:45;;;;;;;5.33;4.20;;;;;;;12.62;100.00;96268.42;1745278;81;21017;-84
2022/10/01 06:01:12;;;;;;;6.55;4.65;;;;;;;12.65;100.00;96267.72;1745586;81;21011;-83
2022/10/01 06:03:38;;;;;;;6.22;4.67;;;;;;;12.70;100.00;96261.44;1750642;82;20991;-83
2022/10/01 06:06:04;;;;;;;6.75;4.80;;;;;;;12.73;100.00;96267.55;1754355;81;21354;-83
2022/10/01 06:08:36;;;;;;;5.60;4.62;;;;;;;12.76;100.00;96263.25;1746674;81;20943;-83
2022/10/01 06:11:03;;;;;;;6.45;4.65;;;;;;;12.76;100.00;96260.14;1754796;81;20959;-83
2022/10/01 06:13:29;;;;;;;6.05;3.67;;;;;;;12.74;99.80;96260.84;1744830;82;20928;-83
2022/10/01 06:15:54;;;;;;;7.00;5.08;;;;;;;12.75;99.82;96265.55;1745160;81;21359;-83
2022/10/01 06:18:20;;;;;;;5.47;4.22;;;;;;;12.80;100.00;96257.43;1750593;81;20987;-83
2022/10/01 06:20:46;;;;;;;5.20;4.50;;;;;;;12.89;100.00;96252.84;1748830;81;20983;-83
2022/10/01 06:23:12;;;;;;;4.65;4.15;;;;;;;12.95;100.00;96260.36;1745307;81;21370;-83
2022/10/01 06:25:40;;;;;;;4.70;3.58;;;;;;;12.95;99.87;96248.63;1717970;82;20951;-83
2022/10/01 06:28:08;;;;;;;5.97;4.12;;;;;;;12.98;100.00;96246.91;1746854;81;21062;-83
2022/10/01 06:30:36;;;;;;;4.95;3.92;;;;;;;13.07;100.00;96249.64;1752618;81;20995;-83
2022/10/01 06:33:07;;;;;;;4.70;4.05;;;;;;;13.09;99.82;96245.02;1745300;81;20995;-83
2022/10/01 06:35:34;;;;;;;6.67;4.30;;;;;;;13.09;100.00;96248.44;1751884;81;20936;-83
2022/10/01 06:38:00;;;;;;;6.87;3.65;;;;;;;13.12;100.00;96251.94;1748560;81;20975;-83
2022/10/01 06:40:28;;;;;;;8.93;3.62;;;;;;;13.13;100.00;96254.84;1745487;81;21003;-83
2022/10/01 06:42:56;;;;;;;7.37;4.10;;;;;;;13.13;100.00;96259.27;1745310;81;21022;-83
2022/10/01 06:45:22;;;;;;;5.53;4.78;;;;;;;13.14;100.00;96257.76;1745429;82;20991;-83
2022/10/01 06:47:55;;;;;;;4.83;3.47;;;;;;;13.15;100.00;96248.92;1758697;81;21050;-83
2022/10/01 06:50:21;;;;;;;8.83;3.42;;;;;;;13.21;100.00;96253.39;1740453;80;20971;-83
2022/10/01 06:52:49;;;;;;;5.15;4.03;;;;;;;13.26;100.00;96255.39;1748770;81;20968;-83
2022/10/01 06:55:20;;;;;;;5.35;3.65;;;;;;;13.27;99.73;96243.95;1742987;81;21039;-84
2022/10/01 06:57:46;;;;;;;8.03;4.50;;;;;;;13.28;99.65;96254.69;1762946;81;20994;-84
2022/10/01 07:00:13;;;;;;;7.60;3.90;;;;;;;13.28;99.89;96251.27;1757816;80;21005;-84
2022/10/01 07:02:39;;;;;;;4.35;3.95;;;;;;;13.28;99.83;96240.33;1763062;81;20930;-83
2022/10/01 07:05:06;;;;;;;4.65;4.15;;;;;;;13.28;99.79;96240.84;1792721;80;21333;-84
2022/10/01 07:07:34;;;;;;;4.53;4.05;;;;;;;13.27;99.49;96243.95;1784010;80;21012;-84
2022/10/01 07:10:05;;;;;;;4.80;4.40;;;;;;;13.29;100.00;96240.62;1774028;81;20961;-83
2022/10/01 07:12:33;;;;;;;4.22;3.77;;;;;;;13.34;99.93;96233.49;1776499;81;21435;-84
2022/10/01 07:14:59;;;;;;;6.12;3.77;;;;;;;13.38;100.00;96235.52;1766718;81;21038;-84
2022/10/01 07:17:25;;;;;;;5.67;4.30;;;;;;;13.41;99.74;96238.22;1759312;81;21079;-84
2022/10/01 07:19:51;;;;;;;4.50;4.00;;;;;;;13.42;99.82;96239.83;1776455;81;20933;-84
2022/10/01 07:22:18;;;;;;;4.62;4.08;;;;;;;13.40;100.00;96240.03;1775946;81;21366;-84
2022/10/01 07:24:45;;;;;;;5.65;4.62;;;;;;;13.46;100.00;96233.19;1776400;81;20941;-84
2022/10/01 07:27:12;;;;;;;6.53;4.58;;;;;;;13.52;100.00;96231.09;1745589;80;20963;-84
2022/10/01 07:29:38;;;;;;;4.85;4.45;;;;;;;13.54;99.84;96231.69;1776391;81;21324;-84
2022/10/01 07:32:07;;;;;;;4.45;3.75;;;;;;;13.56;100.00;96230.17;1748625;81;20924;-84
2022/10/01 07:34:31;;;;;;;8.03;4.40;;;;;;;13.58;99.81;96221.13;1771396;81;21348;-84
2022/10/01 07:36:57;;;;;;;7.62;5.75;;;;;;;13.59;99.65;96218.81;1772687;81;20950;-83
2022/10/01 07:39:23;;;;;;;7.25;6.10;;;;;;;13.61;99.21;96222.52;1758601;81;21078;-84
2022/10/01 07:41:50;;;;;;;7.33;3.95;;;;;;;13.60;99.05;96215.70;1741537;81;20919;-84
2022/10/01 07:44:17;;;;;;;5.62;3.85;;;;;;;13.65;99.38;96217.18;1792723;80;20948;-84
2022/10/01 07:46:43;;;;;;;7.03;6.33;;;;;;;13.66;99.00;96218.28;1758552;81;21349;-84
2022/10/01 07:49:09;;;;;;;5.33;4.40;;;;;;;13.65;98.56;96217.18;1747462;81;20975;-84
2022/10/01 07:51:35;;;;;;;7.42;5.55;;;;;;;13.65;99.16;96217.98;1747568;80;20975;-84
2022/10/01 07:54:02;;;;;;;8.23;6.40;;;;;;;13.65;99.15;96219.29;1793514;80;21021;-84
2022/10/01 07:56:28;;;;;;;7.60;6.85;;;;;;;13.64;99.18;96221.60;1794998;79;21055;-84
2022/10/01 07:58:55;;;;;;;6.92;5.80;;;;;;;13.65;99.65;96227.13;1793874;79;21031;-84
2022/10/01 08:01:21;;;;;;;7.40;6.60;;;;;;;13.67;98.71;96223.83;1776090;79;20955;-83
2022/10/01 08:03:48;;;;;;;8.28;6.70;;;;;;;13.65;98.37;96219.80;1765559;79;20985;-84
2022/10/01 08:06:15;;;;;;;7.65;6.80;;;;;;;13.64;98.96;96216.89;1779386;79;21075;-84
2022/10/01 08:08:40;;;;;;;7.72;6.75;;;;;;;13.66;99.07;96216.98;1781084;79;20948;-84
2022/10/01 08:11:08;;;;;;;8.73;7.35;;;;;;;13.66;98.95;96211.75;1793550;79;21015;-84
2022/10/01 08:13:34;;;;;;;8.23;7.30;;;;;;;13.68;98.83;96212.88;1776754;80;20968;-84
2022/10/01 08:16:05;;;;;;;6.33;5.72;;;;;;;13.70;98.86;96209.05;1782567;79;21374;-84
2022/10/01 08:18:31;;;;;;;9.30;7.63;;;;;;;13.76;99.22;96208.73;1778419;80;21411;-84
2022/10/01 08:21:00;;;;;;;7.62;6.83;;;;;;;13.80;99.19;96208.10;1785257;80;20961;-84
2022/10/01 08:23:27;;;;;;;8.95;7.33;;;;;;;13.79;98.58;96210.41;1743942;80;20971;-84
2022/10/01 08:25:59;;;;;;;9.20;7.83;;;;;;;13.74;98.24;96198.48;1758426;81;20972;-84
2022/10/01 08:28:25;;;;;;;11.43;9.03;;;;;;;13.74;98.02;96202.41;1760752;80;21341;-84
2022/10/01 08:30:51;;;;;;;9.10;7.55;;;;;;;13.77;98.36;96186.83;1774252;80;21003;-84
2022/10/01 08:33:16;;;;;;;10.20;9.03;;;;;;;13.85;98.81;96185.81;1790666;79;20988;-84
2022/10/01 08:35:43;;;;;;;10.15;9.05;;;;;;;13.87;99.15;96185.09;1794757;79;20981;-84
2022/10/01 08:38:09;;;;;;;8.80;7.55;;;;;;;13.90;98.96;96182.87;1795047;80;20901;-84
2022/10/01 08:40:48;;;;;;;10.15;7.80;;;;;;;13.90;97.39;96189.91;1794921;80;21443;-84
2022/10/01 08:43:35;;;;;;;9.73;8.60;;;;;;;13.87;97.57;96191.63;1794901;80;21024;-84
2022/10/01 08:46:15;;;;;;;9.30;8.13;;;;;;;13.89;97.52;96189.61;1795028;79;20933;-83
2022/10/01 08:49:14;;;;;;;10.53;7.53;;;;;;;13.96;98.29;96185.95;1759520;80;21036;-83
2022/10/01 08:52:00;;;;;;;8.68;7.22;;;;;;;13.98;97.45;96185.73;1797451;80;20993;-84
2022/10/01 08:54:52;;;;;;;7.83;6.90;;;;;;;14.01;96.66;96182.23;1782891;79;21048;-84
2022/10/01 08:57:22;;;;;;;10.18;8.70;;;;;;;14.05;96.10;96183.91;1793540;80;20920;-84
2022/10/01 08:59:51;;;;;;;10.18;8.53;;;;;;;13.97;95.65;96189.36;1755991;80;20956;-84
2022/10/01 09:02:24;;;;;;;9.85;8.85;;;;;;;13.92;96.01;96188.69;1764724;80;21023;-84
2022/10/01 09:04:58;;;;;;;9.65;8.75;;;;;;;13.94;96.51;96189.78;1778732;79;20968;-84
2022/10/01 09:07:34;;;;;;;9.50;8.30;;;;;;;14.02;97.37;96189.56;1797007;79;21004;-84
2022/10/01 09:10:24;;;;;;;9.83;8.83;;;;;;;14.12;98.11;96182.06;1797705;80;20996;-84
2022/10/01 09:13:20;;;;;;;9.48;8.48;;;;;;;14.23;97.56;96177.49;1797314;80;21366;-83
2022/10/01 09:15:58;;;;;;;10.72;8.95;;;;;;;14.38;98.17;96176.70;1739160;80;21014;-83
2022/10/01 09:18:41;;;;;;;10.10;8.65;;;;;;;14.54;99.13;96174.13;1796307;79;21007;-83
2022/10/01 09:21:38;;;;;;;9.98;8.98;;;;;;;14.63;98.43;96172.04;1745520;81;20986;-83
2022/10/01 09:24:13;;;;;;;10.43;8.80;;;;;;;14.67;97.69;96168.81;1755319;81;20960;-83
2022/10/01 09:26:41;;;;;;;9.80;8.40;;;;;;;14.70;98.48;96169.69;1759432;81;21342;-84
2022/10/01 09:29:12;;;;;;;9.25;7.42;;;;;;;14.71;97.90;96171.80;1736694;81;21030;-83
2022/10/01 09:31:44;;;;;;;10.60;8.35;;;;;;;14.70;97.27;96181.97;1715299;83;21023;-84
2022/10/01 09:34:28;;;;;;;8.93;7.97;;;;;;;14.66;96.96;96180.80;1749705;82;20956;-84
2022/10/01 09:37:21;;;;;;;10.68;8.88;;;;;;;14.69;97.60;96170.70;1747194;81;21046;-83
2022/10/01 09:40:18;;;;;;;10.13;8.80;;;;;;;14.71;96.38;96175.21;1748335;81;21061;-84
2022/10/01 09:42:43;;;;;;;9.98;8.45;;;;;;;14.72;96.97;96173.40;1771734;80;21305;-83
2022/10/01 09:45:12;;;;;;;9.45;8.53;;;;;;;14.68;97.19;96173.03;1753508;80;20983;-83
2022/10/01 09:47:42;;;;;;;8.73;7.33;;;;;;;14.68;97.14;96170.41;1739063;80;21099;-83
2022/10/01 09:50:10;;;;;;;15.43;13.10;;;;;;;14.71;96.89;96173.10;1769238;81;21035;-83
2022/10/01 09:52:37;;;;;;;13.00;11.50;;;;;;;14.70;96.06;96168.38;1764043;81;21054;-83
2022/10/01 09:55:25;;;;;;;13.38;11.22;;;;;;;14.71;96.98;96167.87;1757997;81;21007;-83
2022/10/01 09:58:02;;;;;;;10.55;9.25;;;;;;;14.67;96.22;96169.31;1775687;81;20954;-83
2022/10/01 10:00:28;;;;;;;14.43;12.03;;;;;;;14.62;96.49;96167.31;1787785;80;20999;-83
2022/10/01 10:02:55;;;;;;;13.65;9.18;;;;;;;14.62;96.56;96157.37;1775922;81;21018;-83
2022/10/01 10:05:26;;;;;;;14.13;11.50;;;;;;;14.64;97.05;96152.72;1776060;79;21390;-84
2022/10/01 10:08:06;;;;;;;12.80;11.30;;;;;;;14.64;96.22;96155.34;1776302;81;21361;-84
2022/10/01 10:10:34;;;;;;;10.78;8.93;;;;;;;14.60;95.97;96150.24;1755800;79;21002;-84
2022/10/01 10:13:12;;;;;;;16.07;13.25;;;;;;;14.56;96.48;96145.16;1761758;81;21040;-84
2022/10/01 10:15:50;;;;;;;16.62;14.07;;;;;;;14.58;96.29;96147.05;1775915;79;20943;-84
2022/10/01 10:18:37;;;;;;;11.97;10.68;;;;;;;14.50;95.66;96147.31;1774588;79;21033;-83
2022/10/01 10:21:15;;;;;;;17.07;13.68;;;;;;;14.47;97.07;96144.59;1749884;79;20991;-84
2022/10/01 10:23:59;;;;;;;12.73;11.33;;;;;;;14.46;96.77;96144.30;1771254;81;21060;-84
2022/10/01 10:26:37;;;;;;;13.30;10.80;;;;;;;14.45;97.28;96141.91;1782479;80;20987;-84
2022/10/01 10:29:06;;;;;;;12.93;11.35;;;;;;;14.49;97.49;96136.56;1766149;80;20983;-84
2022/10/01 10:31:43;;;;;;;14.65;12.23;;;;;;;14.53;97.79;96137.23;1786430;80;21386;-83
2022/10/01 10:34:18;;;;;;;14.43;11.33;;;;;;;14.56;97.55;96132.08;1791868;79;20953;-83
2022/10/01 10:36:44;;;;;;;14.70;12.55;;;;;;;14.60;98.21;96124.89;1798504;79;21415;-84
2022/10/01 10:39:28;;;;;;;16.93;13.22;;;;;;;14.58;97.55;96120.39;1773696;79;21080;-83
2022/10/01 10:41:54;;;;;;;17.87;13.80;;;;;;;14.52;97.36;96116.53;1782028;79;20961;-84
2022/10/01 10:44:20;;;;;;;17.55;14.43;;;;;;;14.50;97.47;96113.33;1797884;80;20938;-84
2022/10/01 10:46:46;;;;;;;16.55;13.83;;;;;;;14.47;97.23;96111.92;1797837;80;20929;-84
2022/10/01 10:49:28;;;;;;;18.65;14.75;;;;;;;14.41;96.99;96108.31;1781668;78;21071;-84
2022/10/01 10:51:55;;;;;;;17.67;15.45;;;;;;;14.37;97.07;96104.53;1770446;79;20971;-83
2022/10/01 10:54:37;;;;;;;15.13;13.48;;;;;;;14.26;96.35;96098.67;1772062;81;21018;-83
2022/10/01 10:57:29;;;;;;;15.98;14.13;;;;;;;14.26;97.30;96097.36;1773439;79;21054;-83
2022/10/01 11:00:07;;;;;;;17.60;13.95;;;;;;;14.27;97.51;96088.51;1745828;81;20971;-84
2022/10/01 11:02:32;;;;;;;17.62;15.00;;;;;;;14.25;97.59;96081.39;1769988;79;20952;-84
2022/10/01 11:05:05;;;;;;;17.05;14.23;;;;;;;14.26;97.52;96079.06;1768293;81;20952;-84
2022/10/01 11:07:32;;;;;;;18.50;14.30;;;;;;;14.26;97.66;96066.00;1733290;80;20984;-84
2022/10/01 11:10:26;;;;;;;19.57;15.18;;;;;;;14.28;97.42;96069.70;1751069;80;21273;-83
2022/10/01 11:13:17;;;;;;;18.30;15.58;;;;;;;14.27;97.21;96055.84;1772528;79;20961;-83
2022/10/01 11:16:18;;;;;;;17.02;14.93;;;;;;;14.22;96.49;96057.50;1794837;80;20960;-83
2022/10/01 11:19:21;;;;;;;16.57;13.68;;;;;;;14.17;97.21;96059.95;1712475;82;21051;-84
2022/10/01 11:22:16;;;;;;;18.15;14.58;;;;;;;14.11;97.46;96054.55;1744547;81;21039;-83
2022/10/01 11:25:06;;;;;;;18.87;14.15;;;;;;;14.11;97.46;96054.55;1791568;79;21039;-83
2022/10/01 11:28:11;;;;;;;18.55;15.15;;;;;;;14.08;97.85;96041.91;1753761;80;21058;-83
2022/10/01 11:31:16;;;;;;;18.27;15.20;;;;;;;14.08;97.80;96041.11;1766846;79;20990;-84
2022/10/01 11:34:09;;;;;;;18.45;15.23;;;;;;;14.10;97.49;96035.16;1795210;80;20951;-84
2022/10/01 11:36:46;;;;;;;17.70;15.45;;;;;;;14.08;97.25;96030.66;1766363;79;21047;-84
2022/10/01 11:39:15;;;;;;;20.43;15.83;;;;;;;14.07;97.16;96032.47;1760260;81;21368;-84
2022/10/01 11:41:49;;;;;;;20.05;15.75;;;;;;;14.04;97.22;96030.80;1760795;79;20966;-84